createdAt,value
2023-02-22T00:00:46.322Z,0.00
2023-02-22T00:01:46.343Z,0.00
2023-02-22T00:02:46.286Z,0.00
2023-02-22T00:03:46.310Z,0.00
2023-02-22T00:04:46.269Z,0.00
2023-02-22T00:05:46.247Z,0.00
2023-02-22T00:06:46.221Z,0.00
2023-02-22T00:07:46.210Z,0.00
2023-02-22T00:08:46.196Z,0.00
2023-02-22T00:09:46.155Z,0.00
2023-02-22T00:10:46.152Z,0.00
2023-02-22T00:11:46.149Z,0.00
2023-02-22T00:12:46.128Z,0.00
2023-02-22T00:13:46.104Z,0.00
2023-02-22T00:14:46.095Z,0.00
2023-02-22T00:15:46.204Z,0.00
2023-02-22T00:16:46.119Z,0.00
2023-02-22T00:17:46.054Z,0.00
2023-02-22T00:18:46.095Z,0.00
2023-02-22T00:19:46.049Z,0.00
2023-02-22T00:20:46.060Z,0.00
2023-02-22T00:21:46.061Z,0.00
2023-02-22T00:22:46.070Z,0.00
2023-02-22T00:23:45.993Z,0.00
2023-02-22T00:24:46.013Z,0.00
2023-02-22T00:25:45.981Z,0.00
2023-02-22T00:26:46.011Z,0.00
2023-02-22T00:27:45.931Z,0.00
2023-02-22T00:28:46.016Z,0.00
2023-02-22T00:29:45.937Z,0.00
2023-02-22T00:30:45.968Z,0.00
2023-02-22T00:31:45.989Z,0.00
2023-02-22T00:32:46.704Z,0.00
2023-02-22T00:33:45.862Z,0.00
2023-02-22T00:34:45.863Z,0.00
2023-02-22T00:35:45.929Z,0.00
2023-02-22T00:36:45.881Z,0.00
2023-02-22T00:37:45.793Z,0.00
2023-02-22T00:38:46.580Z,0.00
2023-02-22T00:39:45.836Z,0.00
2023-02-22T00:40:45.783Z,0.00
2023-02-22T00:41:46.533Z,0.00
2023-02-22T00:42:46.309Z,0.00
2023-02-22T00:43:45.784Z,0.00
2023-02-22T00:44:45.738Z,0.00
2023-02-22T00:45:45.787Z,0.00
2023-02-22T00:46:45.708Z,0.00
2023-02-22T00:47:45.712Z,0.00
2023-02-22T00:48:45.690Z,0.00
2023-02-22T00:49:45.666Z,0.00
2023-02-22T00:50:45.651Z,0.00
2023-02-22T00:51:45.955Z,0.00
2023-02-22T00:52:45.670Z,0.00
2023-02-22T00:53:45.604Z,0.00
2023-02-22T00:54:45.636Z,0.00
2023-02-22T00:55:45.580Z,0.00
2023-02-22T00:56:45.676Z,0.00
2023-02-22T00:57:45.579Z,0.00
2023-02-22T00:58:45.561Z,0.00
2023-02-22T00:59:45.571Z,0.00
2023-02-22T01:00:45.848Z,0.00
2023-02-22T01:01:45.499Z,0.00
2023-02-22T01:02:45.548Z,0.00
2023-02-22T01:03:45.487Z,0.00
2023-02-22T01:04:45.490Z,0.00
2023-02-22T01:05:45.459Z,0.00
2023-02-22T01:06:45.486Z,0.00
2023-02-22T01:07:45.415Z,0.00
2023-02-22T01:08:46.134Z,0.00
2023-02-22T01:09:45.430Z,0.00
2023-02-22T01:10:45.449Z,0.00
2023-02-22T01:11:47.212Z,0.00
2023-02-22T01:12:46.436Z,0.00
2023-02-22T01:13:45.362Z,0.00
2023-02-22T01:14:46.123Z,0.00
2023-02-22T01:15:47.240Z,0.00
2023-02-22T01:16:45.374Z,0.00
2023-02-22T01:17:45.304Z,0.00
2023-02-22T01:18:45.355Z,0.00
2023-02-22T01:19:46.052Z,0.00
2023-02-22T01:20:45.272Z,0.00
2023-02-22T01:21:45.257Z,0.00
2023-02-22T01:22:45.277Z,0.00
2023-02-22T01:23:45.995Z,0.00
2023-02-22T01:24:45.235Z,0.00
2023-02-22T01:25:45.187Z,0.00
2023-02-22T01:26:45.207Z,0.00
2023-02-22T01:27:45.165Z,0.00
2023-02-22T01:28:45.205Z,0.00
2023-02-22T01:29:45.152Z,0.00
2023-02-22T01:30:45.265Z,0.00
2023-02-22T01:31:45.209Z,0.00
2023-02-22T01:32:45.113Z,0.00
2023-02-22T01:33:45.092Z,0.00
2023-02-22T01:34:45.116Z,0.00
2023-02-22T01:35:45.069Z,0.00
2023-02-22T01:36:45.070Z,0.00
2023-02-22T01:37:45.804Z,0.00
2023-02-22T01:38:45.115Z,0.00
2023-02-22T01:39:45.038Z,0.00
2023-02-22T01:40:45.014Z,0.00
2023-02-22T01:41:44.995Z,0.00
2023-02-22T01:42:45.035Z,0.00
2023-02-22T01:43:44.955Z,0.00
2023-02-22T01:44:45.033Z,0.00
2023-02-22T01:45:45.071Z,0.00
2023-02-22T01:46:44.951Z,0.00
2023-02-22T01:47:44.945Z,0.00
2023-02-22T01:48:44.968Z,0.00
2023-02-22T01:49:44.972Z,0.00
2023-02-22T01:50:51.983Z,0.00
2023-02-22T01:51:44.864Z,0.00
2023-02-22T01:52:44.871Z,0.00
2023-02-22T01:53:44.837Z,0.00
2023-02-22T01:54:44.850Z,0.00
2023-02-22T01:55:44.813Z,0.00
2023-02-22T01:56:44.873Z,0.00
2023-02-22T01:57:44.786Z,0.00
2023-02-22T01:58:44.811Z,0.00
2023-02-22T01:59:44.754Z,0.00
2023-02-22T02:00:44.809Z,0.00
2023-02-22T02:01:44.768Z,0.00
2023-02-22T02:02:44.778Z,0.00
2023-02-22T02:03:44.764Z,0.00
2023-02-22T02:04:44.770Z,0.00
2023-02-22T02:05:44.685Z,0.00
2023-02-22T02:06:44.703Z,0.00
2023-02-22T02:07:44.656Z,0.00
2023-02-22T02:08:44.685Z,0.00
2023-02-22T02:09:44.624Z,0.00
2023-02-22T02:10:44.640Z,0.00
2023-02-22T02:11:44.623Z,0.00
2023-02-22T02:12:44.633Z,0.00
2023-02-22T02:13:44.583Z,0.00
2023-02-22T02:14:44.630Z,0.00
2023-02-22T02:15:44.560Z,0.00
2023-02-22T02:16:44.634Z,0.00
2023-02-22T02:17:44.530Z,0.00
2023-02-22T02:18:44.552Z,0.00
2023-02-22T02:19:44.558Z,0.00
2023-02-22T02:20:44.519Z,0.00
2023-02-22T02:21:44.494Z,0.00
2023-02-22T02:22:44.507Z,0.00
2023-02-22T02:23:44.449Z,0.00
2023-02-22T02:24:44.478Z,0.00
2023-02-22T02:25:44.486Z,0.00
2023-02-22T02:26:44.474Z,0.00
2023-02-22T02:27:44.415Z,0.00
2023-02-22T02:28:44.424Z,0.00
2023-02-22T02:29:44.382Z,0.00
2023-02-22T02:30:44.488Z,0.00
2023-02-22T02:31:44.460Z,0.00
2023-02-22T02:32:44.389Z,0.00
2023-02-22T02:33:44.334Z,0.00
2023-02-22T02:34:44.370Z,0.00
2023-02-22T02:35:44.315Z,0.00
2023-02-22T02:36:44.363Z,0.00
2023-02-22T02:37:44.281Z,0.00
2023-02-22T02:38:44.327Z,0.00
2023-02-22T02:39:44.260Z,0.00
2023-02-22T02:40:44.270Z,0.00
2023-02-22T02:41:44.277Z,0.00
2023-02-22T02:42:44.238Z,0.00
2023-02-22T02:43:44.207Z,0.00
2023-02-22T02:44:44.219Z,0.00
2023-02-22T02:45:44.188Z,0.00
2023-02-22T02:46:44.185Z,0.00
2023-02-22T02:47:44.187Z,0.00
2023-02-22T02:48:44.164Z,0.00
2023-02-22T02:49:44.141Z,0.00
2023-02-22T02:50:44.146Z,0.00
2023-02-22T02:51:44.127Z,0.00
2023-02-22T02:52:44.124Z,0.00
2023-02-22T02:53:44.101Z,0.00
2023-02-22T02:54:44.099Z,0.00
2023-02-22T02:55:44.061Z,0.00
2023-02-22T02:56:44.080Z,0.00
2023-02-22T02:57:44.033Z,0.00
2023-02-22T02:58:44.083Z,0.00
2023-02-22T02:59:44.012Z,0.00
2023-02-22T03:00:44.009Z,0.00
2023-02-22T03:01:43.995Z,0.00
2023-02-22T03:02:44.003Z,0.00
2023-02-22T03:03:43.949Z,0.00
2023-02-22T03:04:43.985Z,0.00
2023-02-22T03:05:43.972Z,0.00
2023-02-22T03:06:43.946Z,0.00
2023-02-22T03:07:43.975Z,0.00
2023-02-22T03:08:43.916Z,0.00
2023-02-22T03:09:43.875Z,0.00
2023-02-22T03:10:43.908Z,0.00
2023-02-22T03:11:43.881Z,0.00
2023-02-22T03:12:43.867Z,0.00
2023-02-22T03:13:43.826Z,0.00
2023-02-22T03:14:43.858Z,0.00
2023-02-22T03:15:43.831Z,0.00
2023-02-22T03:16:43.840Z,0.00
2023-02-22T03:17:43.772Z,0.00
2023-02-22T03:18:43.784Z,0.00
2023-02-22T03:19:43.759Z,0.00
2023-02-22T03:20:43.789Z,0.00
2023-02-22T03:21:43.774Z,0.00
2023-02-22T03:22:43.769Z,0.00
2023-02-22T03:23:43.711Z,0.00
2023-02-22T03:24:43.707Z,0.00
2023-02-22T03:25:43.695Z,0.00
2023-02-22T03:26:43.697Z,0.00
2023-02-22T03:27:43.901Z,0.00
2023-02-22T03:28:43.656Z,0.00
2023-02-22T03:29:43.627Z,0.00
2023-02-22T03:30:43.657Z,0.00
2023-02-22T03:31:43.614Z,0.00
2023-02-22T03:32:43.624Z,0.00
2023-02-22T03:33:43.626Z,0.00
2023-02-22T03:34:43.594Z,0.00
2023-02-22T03:35:43.551Z,0.00
2023-02-22T03:36:43.584Z,0.00
2023-02-22T03:37:43.524Z,0.00
2023-02-22T03:38:43.542Z,0.00
2023-02-22T03:39:43.529Z,0.00
2023-02-22T03:40:43.533Z,0.00
2023-02-22T03:41:43.473Z,0.00
2023-02-22T03:42:43.492Z,0.00
2023-02-22T03:43:43.472Z,0.00
2023-02-22T03:44:43.492Z,0.00
2023-02-22T03:45:43.453Z,0.00
2023-02-22T03:46:43.456Z,0.00
2023-02-22T03:47:43.436Z,0.00
2023-02-22T03:48:43.450Z,0.00
2023-02-22T03:49:43.390Z,0.00
2023-02-22T03:50:43.384Z,0.00
2023-02-22T03:51:43.347Z,0.00
2023-02-22T03:52:43.391Z,0.00
2023-02-22T03:53:43.351Z,0.00
2023-02-22T03:54:43.343Z,0.00
2023-02-22T03:55:43.297Z,0.00
2023-02-22T03:56:43.316Z,0.00
2023-02-22T03:57:43.284Z,0.00
2023-02-22T03:58:43.315Z,0.00
2023-02-22T03:59:43.269Z,0.00
2023-02-22T04:00:43.274Z,0.00
2023-02-22T04:01:43.220Z,0.00
2023-02-22T04:02:43.273Z,0.00
2023-02-22T04:03:43.221Z,0.00
2023-02-22T04:04:43.284Z,0.00
2023-02-22T04:05:43.166Z,0.00
2023-02-22T04:06:43.168Z,0.00
2023-02-22T04:07:43.169Z,0.00
2023-02-22T04:08:43.165Z,0.00
2023-02-22T04:09:43.146Z,0.00
2023-02-22T04:10:43.148Z,0.00
2023-02-22T04:11:43.126Z,0.00
2023-02-22T04:12:43.111Z,0.00
2023-02-22T04:13:43.136Z,0.00
2023-02-22T04:14:43.075Z,0.00
2023-02-22T04:15:43.105Z,0.00
2023-02-22T04:16:43.055Z,0.00
2023-02-22T04:17:43.078Z,0.00
2023-02-22T04:18:43.037Z,0.00
2023-02-22T04:19:43.019Z,0.00
2023-02-22T04:20:42.979Z,0.00
2023-02-22T04:21:42.995Z,0.00
2023-02-22T04:22:42.957Z,0.00
2023-02-22T04:23:43.001Z,0.00
2023-02-22T04:24:42.955Z,0.00
2023-02-22T04:25:42.948Z,0.00
2023-02-22T04:26:42.925Z,0.00
2023-02-22T04:27:42.937Z,0.00
2023-02-22T04:28:42.882Z,0.00
2023-02-22T04:29:42.903Z,0.00
2023-02-22T04:30:42.977Z,0.00
2023-02-22T04:31:42.935Z,0.00
2023-02-22T04:32:42.823Z,0.00
2023-02-22T04:33:42.831Z,0.00
2023-02-22T04:34:42.790Z,0.00
2023-02-22T04:35:42.812Z,0.00
2023-02-22T04:36:42.832Z,0.00
2023-02-22T04:37:42.792Z,0.00
2023-02-22T04:38:42.758Z,0.00
2023-02-22T04:39:42.778Z,0.00
2023-02-22T04:40:42.736Z,0.00
2023-02-22T04:41:42.738Z,0.00
2023-02-22T04:42:42.688Z,0.00
2023-02-22T04:43:42.713Z,0.00
2023-02-22T04:44:42.666Z,0.00
2023-02-22T04:45:42.685Z,0.00
2023-02-22T04:46:42.750Z,0.00
2023-02-22T04:47:42.654Z,0.00
2023-02-22T04:48:42.624Z,0.00
2023-02-22T04:49:42.618Z,0.00
2023-02-22T04:50:42.586Z,0.00
2023-02-22T04:51:42.592Z,0.00
2023-02-22T04:52:42.582Z,0.00
2023-02-22T04:53:42.576Z,0.00
2023-02-22T04:54:42.541Z,0.00
2023-02-22T04:55:42.557Z,0.00
2023-02-22T04:56:42.515Z,0.00
2023-02-22T04:57:42.527Z,0.00
2023-02-22T04:58:42.486Z,0.00
2023-02-22T04:59:42.479Z,0.00
2023-02-22T05:00:42.449Z,0.00
2023-02-22T05:01:42.458Z,0.00
2023-02-22T05:02:42.471Z,0.00
2023-02-22T05:03:42.429Z,0.00
2023-02-22T05:04:42.466Z,0.00
2023-02-22T05:05:42.424Z,0.00
2023-02-22T05:06:42.375Z,0.00
2023-02-22T05:07:42.411Z,0.00
2023-02-22T05:08:42.358Z,0.00
2023-02-22T05:09:42.353Z,0.00
2023-02-22T05:10:42.321Z,0.00
2023-02-22T05:11:42.332Z,0.00
2023-02-22T05:12:42.304Z,0.00
2023-02-22T05:13:42.323Z,0.00
2023-02-22T05:14:42.272Z,0.00
2023-02-22T05:15:42.309Z,0.00
2023-02-22T05:16:42.263Z,0.00
2023-02-22T05:17:42.247Z,0.00
2023-02-22T05:18:42.260Z,0.00
2023-02-22T05:19:42.249Z,0.00
2023-02-22T05:20:42.221Z,0.00
2023-02-22T05:21:42.222Z,0.00
2023-02-22T05:22:42.185Z,0.00
2023-02-22T05:23:42.185Z,0.00
2023-02-22T05:24:42.152Z,0.00
2023-02-22T05:25:42.143Z,0.00
2023-02-22T05:26:42.142Z,0.00
2023-02-22T05:27:42.129Z,0.00
2023-02-22T05:28:42.087Z,0.00
2023-02-22T05:29:42.110Z,0.00
2023-02-22T05:30:42.231Z,0.00
2023-02-22T05:31:42.309Z,0.00
2023-02-22T05:32:42.060Z,0.00
2023-02-22T05:33:42.046Z,0.00
2023-02-22T05:34:42.009Z,0.00
2023-02-22T05:35:42.025Z,0.00
2023-02-22T05:36:41.998Z,0.00
2023-02-22T05:37:42.018Z,0.00
2023-02-22T05:38:41.976Z,0.00
2023-02-22T05:39:41.975Z,0.00
2023-02-22T05:40:41.955Z,0.00
2023-02-22T05:41:41.966Z,0.00
2023-02-22T05:42:41.922Z,0.00
2023-02-22T05:43:41.983Z,0.00
2023-02-22T05:44:41.893Z,0.00
2023-02-22T05:45:42.662Z,0.00
2023-02-22T05:46:42.023Z,0.00
2023-02-22T05:47:41.904Z,0.00
2023-02-22T05:48:41.902Z,0.00
2023-02-22T05:49:41.846Z,0.00
2023-02-22T05:50:41.770Z,0.00
2023-02-22T05:51:41.822Z,0.00
2023-02-22T05:52:41.781Z,0.00
2023-02-22T05:53:41.746Z,0.00
2023-02-22T05:54:41.728Z,0.00
2023-02-22T05:55:41.759Z,0.00
2023-02-22T05:56:41.755Z,0.00
2023-02-22T05:57:41.683Z,0.00
2023-02-22T05:58:41.635Z,0.00
2023-02-22T05:59:41.673Z,0.00
2023-02-22T06:00:41.703Z,0.00
2023-02-22T06:01:41.693Z,0.00
2023-02-22T06:02:41.589Z,0.00
2023-02-22T06:03:41.605Z,0.00
2023-02-22T06:04:41.574Z,0.00
2023-02-22T06:05:41.668Z,0.00
2023-02-22T06:06:41.557Z,0.00
2023-02-22T06:07:41.547Z,0.00
2023-02-22T06:08:41.505Z,0.00
2023-02-22T06:09:41.526Z,0.00
2023-02-22T06:10:41.475Z,0.00
2023-02-22T06:11:41.516Z,0.00
2023-02-22T06:12:41.454Z,0.00
2023-02-22T06:13:41.476Z,0.00
2023-02-22T06:14:41.423Z,0.00
2023-02-22T06:15:41.449Z,0.00
2023-02-22T06:16:41.425Z,0.00
2023-02-22T06:17:41.440Z,0.00
2023-02-22T06:18:41.380Z,0.00
2023-02-22T06:19:41.378Z,0.00
2023-02-22T06:20:41.358Z,0.00
2023-02-22T06:21:41.381Z,0.00
2023-02-22T06:22:41.333Z,0.00
2023-02-22T06:23:41.348Z,0.00
2023-02-22T06:24:41.304Z,0.00
2023-02-22T06:25:41.301Z,0.00
2023-02-22T06:26:41.268Z,0.00
2023-02-22T06:27:41.284Z,0.00
2023-02-22T06:28:41.285Z,5.62
2023-02-22T06:29:41.263Z,5.62
2023-02-22T06:30:41.243Z,5.62
2023-02-22T06:31:41.330Z,5.62
2023-02-22T06:32:41.184Z,5.62
2023-02-22T06:33:41.211Z,5.62
2023-02-22T06:34:41.183Z,5.62
2023-02-22T06:35:41.204Z,5.62
2023-02-22T06:36:41.142Z,5.62
2023-02-22T06:37:41.137Z,5.62
2023-02-22T06:38:41.099Z,5.62
2023-02-22T06:39:41.147Z,5.62
2023-02-22T06:40:41.078Z,5.62
2023-02-22T06:41:41.111Z,5.62
2023-02-22T06:42:41.075Z,11.25
2023-02-22T06:43:41.073Z,11.25
2023-02-22T06:44:41.025Z,11.25
2023-02-22T06:45:41.089Z,11.25
2023-02-22T06:46:41.016Z,11.25
2023-02-22T06:47:41.014Z,11.25
2023-02-22T06:48:41.005Z,11.25
2023-02-22T06:49:41.005Z,11.25
2023-02-22T06:50:40.950Z,11.25
2023-02-22T06:51:40.978Z,11.25
2023-02-22T06:52:40.984Z,11.25
2023-02-22T06:53:40.931Z,11.25
2023-02-22T06:54:40.947Z,11.25
2023-02-22T06:55:40.918Z,11.25
2023-02-22T06:56:40.897Z,11.25
2023-02-22T06:57:40.896Z,11.25
2023-02-22T06:58:40.847Z,11.25
2023-02-22T06:59:40.848Z,11.25
2023-02-22T07:00:40.901Z,11.25
2023-02-22T07:01:40.835Z,11.25
2023-02-22T07:02:40.804Z,16.88
2023-02-22T07:03:40.901Z,16.88
2023-02-22T07:04:43.296Z,16.88
2023-02-22T07:05:40.793Z,16.88
2023-02-22T07:06:40.756Z,16.88
2023-02-22T07:07:40.767Z,16.88
2023-02-22T07:08:40.745Z,16.88
2023-02-22T07:09:40.745Z,16.88
2023-02-22T07:10:40.718Z,16.88
2023-02-22T07:11:40.728Z,16.88
2023-02-22T07:12:40.707Z,16.88
2023-02-22T07:13:40.687Z,16.88
2023-02-22T07:14:40.656Z,22.50
2023-02-22T07:15:40.682Z,22.50
2023-02-22T07:16:40.696Z,22.50
2023-02-22T07:17:40.648Z,22.50
2023-02-22T07:18:40.600Z,22.50
2023-02-22T07:19:40.631Z,22.50
2023-02-22T07:20:40.582Z,22.50
2023-02-22T07:21:40.617Z,22.50
2023-02-22T07:22:40.558Z,22.50
2023-02-22T07:23:40.568Z,28.12
2023-02-22T07:24:40.519Z,28.12
2023-02-22T07:25:40.580Z,28.12
2023-02-22T07:26:40.548Z,28.12
2023-02-22T07:27:40.505Z,28.12
2023-02-22T07:28:40.516Z,28.12
2023-02-22T07:29:40.497Z,28.12
2023-02-22T07:30:40.551Z,28.12
2023-02-22T07:31:40.495Z,28.12
2023-02-22T07:32:40.504Z,28.12
2023-02-22T07:33:40.435Z,28.12
2023-02-22T07:34:40.435Z,28.12
2023-02-22T07:35:40.434Z,33.75
2023-02-22T07:36:40.394Z,33.75
2023-02-22T07:37:40.395Z,33.75
2023-02-22T07:38:40.351Z,33.75
2023-02-22T07:39:40.408Z,33.75
2023-02-22T07:40:40.320Z,33.75
2023-02-22T07:41:40.329Z,33.75
2023-02-22T07:42:40.309Z,33.75
2023-02-22T07:43:40.308Z,33.75
2023-02-22T07:44:40.298Z,33.75
2023-02-22T07:45:40.340Z,33.75
2023-02-22T07:46:40.256Z,33.75
2023-02-22T07:47:40.247Z,33.75
2023-02-22T07:48:40.270Z,33.75
2023-02-22T07:49:40.235Z,33.75
2023-02-22T07:50:40.207Z,33.75
2023-02-22T07:51:47.293Z,33.75
2023-02-22T07:52:40.186Z,33.75
2023-02-22T07:53:40.213Z,33.75
2023-02-22T07:54:40.232Z,33.75
2023-02-22T07:55:40.182Z,33.75
2023-02-22T07:56:40.173Z,33.75
2023-02-22T07:57:40.183Z,33.75
2023-02-22T07:58:40.111Z,33.75
2023-02-22T07:59:40.159Z,33.75
2023-02-22T08:00:40.123Z,39.38
2023-02-22T08:01:40.152Z,39.38
2023-02-22T08:02:40.100Z,39.38
2023-02-22T08:03:40.159Z,39.38
2023-02-22T08:04:40.839Z,39.38
2023-02-22T08:05:40.089Z,39.38
2023-02-22T08:06:40.106Z,39.38
2023-02-22T08:07:40.086Z,45.00
2023-02-22T08:08:40.837Z,45.00
2023-02-22T08:09:40.085Z,45.00
2023-02-22T08:10:40.811Z,45.00
2023-02-22T08:11:40.534Z,45.00
2023-02-22T08:12:39.937Z,45.00
2023-02-22T08:13:40.034Z,45.00
2023-02-22T08:14:40.031Z,50.62
2023-02-22T08:15:39.970Z,50.62
2023-02-22T08:16:39.980Z,50.62
2023-02-22T08:17:39.946Z,50.62
2023-02-22T08:18:39.860Z,50.62
2023-02-22T08:19:39.933Z,50.62
2023-02-22T08:20:39.869Z,50.62
2023-02-22T08:21:39.860Z,50.62
2023-02-22T08:22:39.961Z,50.62
2023-02-22T08:23:39.898Z,50.62
2023-02-22T08:24:39.871Z,50.62
2023-02-22T08:25:40.588Z,56.25
2023-02-22T08:26:39.786Z,56.25
2023-02-22T08:27:40.563Z,56.25
2023-02-22T08:28:39.763Z,56.25
2023-02-22T08:29:39.736Z,56.25
2023-02-22T08:30:40.526Z,56.25
2023-02-22T08:31:39.706Z,56.25
2023-02-22T08:32:39.822Z,56.25
2023-02-22T08:33:39.659Z,61.88
2023-02-22T08:34:39.665Z,61.88
2023-02-22T08:35:39.661Z,61.88
2023-02-22T08:36:39.702Z,61.88
2023-02-22T08:37:39.610Z,61.88
2023-02-22T08:38:39.610Z,61.88
2023-02-22T08:39:39.612Z,61.88
2023-02-22T08:40:39.596Z,61.88
2023-02-22T08:41:39.549Z,61.88
2023-02-22T08:42:39.571Z,61.88
2023-02-22T08:43:40.292Z,61.88
2023-02-22T08:44:39.549Z,61.88
2023-02-22T08:45:39.551Z,61.88
2023-02-22T08:46:39.523Z,61.88
2023-02-22T08:47:39.482Z,61.88
2023-02-22T08:48:39.540Z,61.88
2023-02-22T08:49:39.452Z,61.88
2023-02-22T08:50:39.489Z,61.88
2023-02-22T08:51:39.422Z,61.88
2023-02-22T08:52:39.438Z,61.88
2023-02-22T08:53:39.427Z,61.88
2023-02-22T08:54:39.421Z,61.88
2023-02-22T08:55:39.395Z,61.88
2023-02-22T08:56:39.423Z,61.88
2023-02-22T08:57:39.351Z,61.88
2023-02-22T08:58:39.353Z,61.88
2023-02-22T08:59:39.322Z,61.88
2023-02-22T09:00:39.323Z,61.88
2023-02-22T09:01:39.685Z,67.50
2023-02-22T09:02:39.321Z,67.50
2023-02-22T09:03:39.315Z,67.50
2023-02-22T09:04:39.283Z,67.50
2023-02-22T09:05:39.336Z,67.50
2023-02-22T09:06:39.249Z,67.50
2023-02-22T09:07:39.216Z,67.50
2023-02-22T09:08:39.222Z,73.12
2023-02-22T09:09:39.197Z,67.50
2023-02-22T09:10:39.240Z,73.12
2023-02-22T09:11:39.197Z,67.50
2023-02-22T09:12:39.184Z,67.50
2023-02-22T09:13:39.185Z,67.50
2023-02-22T09:14:39.175Z,67.50
2023-02-22T09:15:39.142Z,67.50
2023-02-22T09:16:39.200Z,67.50
2023-02-22T09:17:39.092Z,67.50
2023-02-22T09:18:44.068Z,73.12
2023-02-22T09:19:40.061Z,73.12
2023-02-22T09:20:39.079Z,73.12
2023-02-22T09:21:39.084Z,78.75
2023-02-22T09:22:39.056Z,84.38
2023-02-22T09:23:39.039Z,90.00
2023-02-22T09:24:39.051Z,78.75
2023-02-22T09:25:38.989Z,78.75
2023-02-22T09:26:39.027Z,78.75
2023-02-22T09:27:38.978Z,90.00
2023-02-22T09:28:38.975Z,95.62
2023-02-22T09:29:38.927Z,95.62
2023-02-22T09:30:38.974Z,101.25
2023-02-22T09:31:38.980Z,101.25
2023-02-22T09:32:39.201Z,106.88
2023-02-22T09:33:38.887Z,106.88
2023-02-22T09:34:38.904Z,101.25
2023-02-22T09:35:38.983Z,101.25
2023-02-22T09:36:38.872Z,101.25
2023-02-22T09:37:38.842Z,106.88
2023-02-22T09:38:38.833Z,101.25
2023-02-22T09:39:38.830Z,106.88
2023-02-22T09:40:38.862Z,118.12
2023-02-22T09:41:38.780Z,118.12
2023-02-22T09:42:38.788Z,106.88
2023-02-22T09:43:38.749Z,101.25
2023-02-22T09:44:38.770Z,95.62
2023-02-22T09:45:38.752Z,95.62
2023-02-22T09:46:38.801Z,95.62
2023-02-22T09:47:38.807Z,90.00
2023-02-22T09:48:38.723Z,90.00
2023-02-22T09:49:38.675Z,84.38
2023-02-22T09:50:38.698Z,78.75
2023-02-22T09:51:38.720Z,78.75
2023-02-22T09:52:38.694Z,78.75
2023-02-22T09:53:38.623Z,78.75
2023-02-22T09:54:38.651Z,78.75
2023-02-22T09:55:38.633Z,78.75
2023-02-22T09:56:38.602Z,78.75
2023-02-22T09:57:38.842Z,73.12
2023-02-22T09:58:41.474Z,73.12
2023-02-22T09:59:39.416Z,73.12
2023-02-22T10:00:38.614Z,73.12
2023-02-22T10:01:38.535Z,73.12
2023-02-22T10:02:38.588Z,73.12
2023-02-22T10:03:38.546Z,73.12
2023-02-22T10:04:38.510Z,78.75
2023-02-22T10:05:38.585Z,78.75
2023-02-22T10:06:38.484Z,84.38
2023-02-22T10:07:38.524Z,78.75
2023-02-22T10:08:38.484Z,73.12
2023-02-22T10:09:38.465Z,73.12
2023-02-22T10:10:38.450Z,67.50
2023-02-22T10:11:38.401Z,67.50
2023-02-22T10:12:38.418Z,67.50
2023-02-22T10:13:38.386Z,61.88
2023-02-22T10:14:38.445Z,67.50
2023-02-22T10:15:38.378Z,67.50
2023-02-22T10:16:38.386Z,73.12
2023-02-22T10:17:38.345Z,67.50
2023-02-22T10:18:38.326Z,73.12
2023-02-22T10:19:38.326Z,73.12
2023-02-22T10:20:38.302Z,78.75
2023-02-22T10:21:38.284Z,73.12
2023-02-22T10:22:38.289Z,73.12
2023-02-22T10:23:38.245Z,67.50
2023-02-22T10:24:38.282Z,67.50
2023-02-22T10:25:38.261Z,67.50
2023-02-22T10:26:38.264Z,67.50
2023-02-22T10:27:38.220Z,67.50
2023-02-22T10:28:38.217Z,67.50
2023-02-22T10:29:38.179Z,73.12
2023-02-22T10:30:38.239Z,78.75
2023-02-22T10:31:38.210Z,78.75
2023-02-22T10:32:38.202Z,84.38
2023-02-22T10:33:38.158Z,84.38
2023-02-22T10:34:38.152Z,95.62
2023-02-22T10:35:38.119Z,90.00
2023-02-22T10:36:38.099Z,95.62
2023-02-22T10:37:38.205Z,101.25
2023-02-22T10:38:38.356Z,112.50
2023-02-22T10:39:38.113Z,106.88
2023-02-22T10:40:38.048Z,106.88
2023-02-22T10:41:38.061Z,95.62
2023-02-22T10:42:38.044Z,95.62
2023-02-22T10:43:38.031Z,95.62
2023-02-22T10:44:38.058Z,101.25
2023-02-22T10:45:37.986Z,95.62
2023-02-22T10:46:38.038Z,106.88
2023-02-22T10:47:38.002Z,112.50
2023-02-22T10:48:37.969Z,112.50
2023-02-22T10:49:37.935Z,112.50
2023-02-22T10:50:37.950Z,112.50
2023-02-22T10:51:37.934Z,112.50
2023-02-22T10:52:37.924Z,106.88
2023-02-22T10:53:37.892Z,101.25
2023-02-22T10:54:37.902Z,90.00
2023-02-22T10:55:38.009Z,90.00
2023-02-22T10:56:37.852Z,84.38
2023-02-22T10:57:37.866Z,84.38
2023-02-22T10:58:37.821Z,78.75
2023-02-22T10:59:37.823Z,78.75
2023-02-22T11:00:38.769Z,78.75
2023-02-22T11:01:37.839Z,67.50
2023-02-22T11:02:37.774Z,73.12
2023-02-22T11:03:37.776Z,61.88
2023-02-22T11:04:37.760Z,61.88
2023-02-22T11:05:37.732Z,56.25
2023-02-22T11:06:37.822Z,61.88
2023-02-22T11:07:37.706Z,61.88
2023-02-22T11:08:37.715Z,73.12
2023-02-22T11:09:37.684Z,73.12
2023-02-22T11:10:37.687Z,73.12
2023-02-22T11:11:37.670Z,73.12
2023-02-22T11:12:37.712Z,78.75
2023-02-22T11:13:37.674Z,67.50
2023-02-22T11:14:37.664Z,73.12
2023-02-22T11:15:37.612Z,78.75
2023-02-22T11:16:37.782Z,78.75
2023-02-22T11:17:37.588Z,78.75
2023-02-22T11:18:37.568Z,73.12
2023-02-22T11:19:37.548Z,67.50
2023-02-22T11:20:37.568Z,67.50
2023-02-22T11:21:37.932Z,61.88
2023-02-22T11:22:37.680Z,67.50
2023-02-22T11:23:37.486Z,67.50
2023-02-22T11:24:48.788Z,67.50
2023-02-22T11:25:38.500Z,67.50
2023-02-22T11:26:37.475Z,67.50
2023-02-22T11:27:37.467Z,67.50
2023-02-22T11:28:37.490Z,73.12
2023-02-22T11:29:37.502Z,78.75
2023-02-22T11:30:37.531Z,73.12
2023-02-22T11:31:37.472Z,73.12
2023-02-22T11:32:37.411Z,73.12
2023-02-22T11:33:37.381Z,78.75
2023-02-22T11:34:37.394Z,84.38
2023-02-22T11:35:37.338Z,84.38
2023-02-22T11:36:37.447Z,84.38
2023-02-22T11:37:37.332Z,84.38
2023-02-22T11:38:37.412Z,84.38
2023-02-22T11:39:37.329Z,95.62
2023-02-22T11:40:37.328Z,95.62
2023-02-22T11:41:37.263Z,95.62
2023-02-22T11:42:37.285Z,90.00
2023-02-22T11:43:37.295Z,90.00
2023-02-22T11:44:37.264Z,95.62
2023-02-22T11:45:38.570Z,90.00
2023-02-22T11:46:37.253Z,90.00
2023-02-22T11:47:37.182Z,95.62
2023-02-22T11:48:37.220Z,95.62
2023-02-22T11:49:37.177Z,101.25
2023-02-22T11:50:37.170Z,95.62
2023-02-22T11:51:37.128Z,106.88
2023-02-22T11:52:37.178Z,101.25
2023-02-22T11:53:37.139Z,106.88
2023-02-22T11:54:37.179Z,95.62
2023-02-22T11:55:43.034Z,90.00
2023-02-22T11:56:38.520Z,95.62
2023-02-22T11:57:37.117Z,101.25
2023-02-22T11:58:37.056Z,106.88
2023-02-22T11:59:37.048Z,106.88
2023-02-22T12:00:37.041Z,106.88
2023-02-22T12:01:37.044Z,101.25
2023-02-22T12:02:38.605Z,101.25
2023-02-22T12:03:37.269Z,101.25
2023-02-22T12:04:37.072Z,90.00
2023-02-22T12:05:36.985Z,90.00
2023-02-22T12:06:37.007Z,90.00
2023-02-22T12:07:36.930Z,78.75
2023-02-22T12:08:36.996Z,78.75
2023-02-22T12:09:36.893Z,84.38
2023-02-22T12:10:37.188Z,84.38
2023-02-22T12:11:36.871Z,84.38
2023-02-22T12:12:36.888Z,84.38
2023-02-22T12:13:36.837Z,78.75
2023-02-22T12:14:36.857Z,78.75
2023-02-22T12:15:36.913Z,84.38
2023-02-22T12:16:36.861Z,84.38
2023-02-22T12:17:36.826Z,84.38
2023-02-22T12:18:36.877Z,84.38
2023-02-22T12:19:36.762Z,90.00
2023-02-22T12:20:36.807Z,90.00
2023-02-22T12:21:36.749Z,90.00
2023-02-22T12:22:36.778Z,95.62
2023-02-22T12:23:36.711Z,95.62
2023-02-22T12:24:36.760Z,95.62
2023-02-22T12:25:36.697Z,101.25
2023-02-22T12:26:36.700Z,101.25
2023-02-22T12:27:36.660Z,101.25
2023-02-22T12:28:36.742Z,101.25
2023-02-22T12:29:36.701Z,106.88
2023-02-22T12:30:36.665Z,106.88
2023-02-22T12:31:36.857Z,112.50
2023-02-22T12:32:36.670Z,112.50
2023-02-22T12:33:36.627Z,112.50
2023-02-22T12:34:36.646Z,112.50
2023-02-22T12:35:36.591Z,112.50
2023-02-22T12:36:36.568Z,112.50
2023-02-22T12:37:36.561Z,118.12
2023-02-22T12:38:36.541Z,118.12
2023-02-22T12:39:51.863Z,118.12
2023-02-22T12:40:37.540Z,118.12
2023-02-22T12:41:36.597Z,118.12
2023-02-22T12:42:36.500Z,118.12
2023-02-22T12:43:36.487Z,118.12
2023-02-22T12:44:36.454Z,112.50
2023-02-22T12:45:36.508Z,106.88
2023-02-22T12:46:36.586Z,112.50
2023-02-22T12:47:36.427Z,112.50
2023-02-22T12:48:36.485Z,112.50
2023-02-22T12:49:36.461Z,118.12
2023-02-22T12:50:36.478Z,118.12
2023-02-22T12:51:36.384Z,118.12
2023-02-22T12:52:36.359Z,112.50
2023-02-22T12:53:36.355Z,112.50
2023-02-22T12:54:36.323Z,118.12
2023-02-22T12:55:36.334Z,123.75
2023-02-22T12:56:36.321Z,129.38
2023-02-22T12:57:36.326Z,123.75
2023-02-22T12:58:36.308Z,123.75
2023-02-22T12:59:36.292Z,118.12
2023-02-22T13:00:36.301Z,123.75
2023-02-22T13:01:36.348Z,129.38
2023-02-22T13:02:36.221Z,129.38
2023-02-22T13:03:36.242Z,123.75